createdAt,value
2022-12-14T00:01:09.592Z,23.10
2022-12-14T00:03:11.823Z,18.80
2022-12-14T00:05:13.476Z,20.58
2022-12-14T00:07:15.022Z,20.42
2022-12-14T00:09:16.636Z,20.00
2022-12-14T00:11:21.244Z,19.70
2022-12-14T00:13:22.849Z,19.90
2022-12-14T00:15:24.425Z,20.70
2022-12-14T00:17:26.098Z,22.80
2022-12-14T00:19:27.939Z,22.10
2022-12-14T00:23:37.148Z,24.63
2022-12-14T00:25:40.894Z,24.30
2022-12-14T00:27:45.179Z,20.80
2022-12-14T00:29:46.758Z,22.98
2022-12-14T00:31:49.601Z,19.98
2022-12-14T00:33:51.858Z,22.00
2022-12-14T00:35:53.405Z,18.23
2022-12-14T00:37:54.955Z,23.25
2022-12-14T00:39:58.761Z,21.52
2022-12-14T00:42:00.707Z,23.27
2022-12-14T00:44:03.817Z,21.67
2022-12-14T00:46:05.733Z,22.23
2022-12-14T00:48:07.342Z,19.90
2022-12-14T00:50:11.372Z,23.25
2022-12-14T00:52:12.965Z,24.27
2022-12-14T00:54:14.836Z,22.48
2022-12-14T00:58:22.293Z,23.27
2022-12-14T01:00:27.177Z,22.85
2022-12-14T01:02:28.991Z,21.95
2022-12-14T01:06:32.008Z,21.92
2022-12-14T01:08:33.619Z,21.17
2022-12-14T01:10:38.986Z,19.65
2022-12-14T01:12:40.538Z,23.88
2022-12-14T01:14:44.542Z,17.75
2022-12-14T01:16:47.573Z,21.17
2022-12-14T01:18:49.090Z,25.67
2022-12-14T01:20:50.669Z,22.02
2022-12-14T01:22:54.262Z,21.65
2022-12-14T01:24:55.911Z,18.90
2022-12-14T01:26:57.721Z,21.10
2022-12-14T01:31:09.176Z,21.42
2022-12-14T01:33:12.166Z,21.48
2022-12-14T01:35:14.204Z,19.67
2022-12-14T01:37:16.245Z,21.10
2022-12-14T01:39:17.888Z,22.02
2022-12-14T01:41:26.564Z,20.95
2022-12-14T01:43:45.881Z,27.27
2022-12-14T01:45:53.463Z,24.08
2022-12-14T01:47:58.622Z,21.98
2022-12-14T01:50:06.574Z,24.38
2022-12-14T01:52:12.557Z,22.45
2022-12-14T01:54:15.146Z,20.40
2022-12-14T01:56:17.483Z,24.25
2022-12-14T01:58:20.971Z,27.17
2022-12-14T02:00:22.516Z,25.23
2022-12-14T02:02:26.064Z,21.35
2022-12-14T02:04:28.258Z,21.98
2022-12-14T02:06:33.729Z,22.27
2022-12-14T02:08:37.116Z,21.00
2022-12-14T02:10:38.797Z,20.90
2022-12-14T02:12:45.215Z,23.88
2022-12-14T02:14:47.650Z,24.20
2022-12-14T02:16:50.921Z,20.90
2022-12-14T02:18:52.427Z,20.73
2022-12-14T02:21:14.315Z,22.55
2022-12-14T02:23:40.746Z,21.45
2022-12-14T02:26:02.085Z,24.75
2022-12-14T02:28:24.989Z,22.98
2022-12-14T02:30:33.603Z,24.85
2022-12-14T02:33:07.494Z,25.15
2022-12-14T02:35:17.378Z,24.15
2022-12-14T02:37:25.379Z,19.77
2022-12-14T02:39:41.978Z,27.20
2022-12-14T02:41:53.273Z,26.13
2022-12-14T02:44:04.938Z,24.35
2022-12-14T02:46:15.569Z,22.05
2022-12-14T02:48:21.390Z,22.42
2022-12-14T02:50:29.508Z,25.67
2022-12-14T02:52:40.617Z,23.67
2022-12-14T02:54:49.876Z,26.30
2022-12-14T02:56:56.266Z,21.50
2022-12-14T02:58:58.182Z,25.40
2022-12-14T03:03:05.015Z,23.40
2022-12-14T03:05:07.546Z,25.75
2022-12-14T03:07:29.458Z,22.98
2022-12-14T03:09:32.455Z,25.92
2022-12-14T03:11:39.833Z,25.55
2022-12-14T03:13:49.106Z,22.75
2022-12-14T03:15:55.569Z,25.27
2022-12-14T03:18:01.343Z,27.88
2022-12-14T03:20:10.512Z,26.77
2022-12-14T03:22:18.200Z,23.85
2022-12-14T03:24:25.308Z,22.40
2022-12-14T03:26:32.898Z,25.05
2022-12-14T03:28:40.874Z,22.92
2022-12-14T03:31:04.316Z,27.02
2022-12-14T03:33:10.127Z,26.63
2022-12-14T03:35:17.512Z,22.33
2022-12-14T03:37:26.391Z,23.48
2022-12-14T03:39:31.215Z,19.38
2022-12-14T03:41:40.993Z,21.75
2022-12-14T03:43:54.036Z,25.50
2022-12-14T03:46:04.205Z,22.10
2022-12-14T03:48:14.314Z,23.08
2022-12-14T03:50:22.856Z,22.80
2022-12-14T03:52:31.117Z,23.10
2022-12-14T03:56:52.925Z,25.30
2022-12-14T03:59:05.702Z,18.83
2022-12-14T04:01:13.740Z,21.23
2022-12-14T04:03:23.472Z,22.17
2022-12-14T04:05:33.420Z,24.75
2022-12-14T04:07:41.349Z,23.67
2022-12-14T04:09:48.691Z,25.13
2022-12-14T04:11:56.431Z,24.38
2022-12-14T04:14:04.372Z,22.95
2022-12-14T04:16:11.374Z,20.92
2022-12-14T04:18:19.365Z,24.40
2022-12-14T04:20:26.211Z,22.00
2022-12-14T04:22:33.494Z,23.00
2022-12-14T04:24:40.141Z,24.02
2022-12-14T04:26:48.904Z,23.67
2022-12-14T04:28:54.417Z,24.50
2022-12-14T04:30:59.729Z,27.40
2022-12-14T04:33:05.642Z,22.75
2022-12-14T04:35:13.944Z,22.65
2022-12-14T04:37:18.682Z,22.63
2022-12-14T04:39:30.979Z,23.27
2022-12-14T04:41:36.227Z,21.88
2022-12-14T04:43:42.700Z,22.65
2022-12-14T04:45:50.456Z,23.48
2022-12-14T04:48:00.345Z,21.45
2022-12-14T04:50:05.426Z,24.92
2022-12-14T04:52:12.480Z,22.92
2022-12-14T04:54:19.521Z,25.73
2022-12-14T04:56:26.605Z,21.60
2022-12-14T04:58:30.664Z,25.90
2022-12-14T05:00:37.640Z,27.20
2022-12-14T05:02:53.230Z,25.83
2022-12-14T05:05:00.810Z,26.42
2022-12-14T05:07:11.023Z,21.85
2022-12-14T05:09:18.263Z,26.25
2022-12-14T05:13:49.933Z,22.52
2022-12-14T05:15:54.547Z,23.83
2022-12-14T05:17:56.724Z,23.98
2022-12-14T05:19:58.279Z,27.40
2022-12-14T05:22:06.079Z,23.38
2022-12-14T05:24:08.262Z,24.98
2022-12-14T05:26:09.789Z,25.85
2022-12-14T05:28:13.088Z,24.98
2022-12-14T05:30:14.758Z,23.00
2022-12-14T05:32:16.317Z,27.15
2022-12-14T05:34:17.917Z,23.50
2022-12-14T05:36:19.668Z,27.45
2022-12-14T05:38:21.214Z,26.20
2022-12-14T05:40:22.697Z,24.42
2022-12-14T05:42:24.602Z,26.60
2022-12-14T05:46:28.860Z,23.80
2022-12-14T05:48:30.664Z,23.20
2022-12-14T05:50:32.215Z,19.30
2022-12-14T05:52:33.902Z,20.33
2022-12-14T05:54:35.465Z,19.17
2022-12-14T05:56:36.991Z,21.73
2022-12-14T05:58:39.186Z,20.23
2022-12-14T06:00:42.297Z,27.05
2022-12-14T06:02:43.857Z,21.85
2022-12-14T06:04:45.551Z,23.00
2022-12-14T06:06:47.212Z,20.05
2022-12-14T06:08:48.883Z,20.13
2022-12-14T06:10:50.434Z,26.58
2022-12-14T06:12:52.049Z,22.73
2022-12-14T06:14:54.638Z,23.85
2022-12-14T06:16:57.505Z,22.95
2022-12-14T06:19:01.413Z,23.58
2022-12-14T06:21:03.042Z,25.40
2022-12-14T06:23:04.593Z,27.42
2022-12-14T06:25:07.040Z,22.80
2022-12-14T06:27:08.613Z,23.80
2022-12-14T06:29:14.603Z,57.60
2022-12-14T06:31:18.078Z,28.38
2022-12-14T06:33:21.174Z,38.53
2022-12-14T06:35:22.921Z,60.22
2022-12-14T06:37:24.656Z,38.83
2022-12-14T06:39:26.231Z,27.08
2022-12-14T06:41:27.694Z,25.33
2022-12-14T06:43:29.620Z,32.55
2022-12-14T06:45:31.528Z,26.10
2022-12-14T06:47:33.051Z,27.15
2022-12-14T06:49:36.210Z,25.80
2022-12-14T06:51:39.426Z,26.05
2022-12-14T06:53:41.092Z,26.90
2022-12-14T06:55:42.727Z,27.58
2022-12-14T06:57:44.330Z,27.17
2022-12-14T06:59:45.856Z,26.75
2022-12-14T07:01:49.969Z,21.65
2022-12-14T07:03:53.557Z,26.33
2022-12-14T07:05:57.389Z,23.83
2022-12-14T07:07:58.940Z,22.67
2022-12-14T07:10:01.525Z,21.52
2022-12-14T07:12:03.226Z,24.80
2022-12-14T07:14:04.867Z,22.08
2022-12-14T07:16:07.991Z,19.35
2022-12-14T07:18:09.528Z,19.70
2022-12-14T07:20:11.465Z,18.17
2022-12-14T07:24:16.162Z,19.15
2022-12-14T07:26:19.672Z,19.45
2022-12-14T07:28:21.220Z,21.80
2022-12-14T07:30:22.742Z,19.10
2022-12-14T07:32:24.584Z,18.55
2022-12-14T07:34:26.505Z,23.98
2022-12-14T07:38:31.937Z,18.15
2022-12-14T07:40:33.911Z,20.65
2022-12-14T07:42:35.454Z,18.10
2022-12-14T07:44:37.165Z,21.25
2022-12-14T07:46:39.858Z,21.70
2022-12-14T07:48:44.264Z,18.67
2022-12-14T07:50:45.968Z,19.83
2022-12-14T07:52:47.716Z,20.13
2022-12-14T07:54:50.620Z,22.17
2022-12-14T07:56:52.226Z,18.38
2022-12-14T07:58:54.940Z,21.80
2022-12-14T08:00:56.499Z,23.80
2022-12-14T08:02:58.050Z,21.27
2022-12-14T08:04:59.642Z,20.42
2022-12-14T08:07:01.157Z,15.98
2022-12-14T08:09:03.824Z,18.23
2022-12-14T08:11:07.535Z,21.73
2022-12-14T08:13:09.082Z,20.92
2022-12-14T08:15:10.757Z,20.55
2022-12-14T08:17:12.357Z,21.33
2022-12-14T08:19:13.905Z,23.60
2022-12-14T08:21:15.450Z,22.88
2022-12-14T08:23:17.028Z,23.30
2022-12-14T08:25:18.572Z,23.63
2022-12-14T08:27:21.497Z,25.63
2022-12-14T08:29:23.043Z,22.40
2022-12-14T08:31:26.167Z,20.45
2022-12-14T08:33:28.155Z,21.00
2022-12-14T08:35:32.498Z,20.73
2022-12-14T08:37:34.290Z,21.60
2022-12-14T08:39:35.881Z,22.50
2022-12-14T08:41:37.420Z,21.13
2022-12-14T08:43:41.057Z,20.38
2022-12-14T08:45:42.922Z,18.52
2022-12-14T08:47:44.585Z,22.48
2022-12-14T08:49:46.218Z,19.90
2022-12-14T08:51:47.918Z,19.67
2022-12-14T08:53:49.837Z,23.30
2022-12-14T08:57:52.870Z,17.65
2022-12-14T09:00:03.477Z,20.38
2022-12-14T09:02:05.483Z,23.67
2022-12-14T09:04:08.611Z,20.75
2022-12-14T09:06:12.312Z,18.20
2022-12-14T09:08:13.866Z,18.33
2022-12-14T09:10:15.675Z,20.27
2022-12-14T09:12:17.262Z,20.38
2022-12-14T09:14:18.823Z,18.90
2022-12-14T09:16:24.111Z,19.25
2022-12-14T09:18:25.817Z,19.38
2022-12-14T09:20:27.448Z,18.88
2022-12-14T09:22:29.344Z,21.45
2022-12-14T09:26:32.238Z,18.27
2022-12-14T09:28:36.531Z,21.27
2022-12-14T09:30:38.068Z,21.48
2022-12-14T09:32:41.159Z,22.50
2022-12-14T09:34:42.998Z,19.50
2022-12-14T09:36:44.832Z,18.75
2022-12-14T09:38:51.115Z,20.05
2022-12-14T09:40:57.310Z,21.65
2022-12-14T09:43:05.837Z,20.75
2022-12-14T09:45:14.121Z,20.45
2022-12-14T09:49:26.910Z,19.33
2022-12-14T09:51:36.858Z,20.08
2022-12-14T09:53:39.967Z,21.13
2022-12-14T09:55:44.104Z,18.38
2022-12-14T09:57:48.888Z,22.83
2022-12-14T09:59:52.678Z,17.25
2022-12-14T10:02:31.512Z,19.00
2022-12-14T10:04:41.644Z,18.95
2022-12-14T10:06:51.225Z,19.92
2022-12-14T10:09:00.396Z,19.83
2022-12-14T10:11:09.462Z,22.17
2022-12-14T10:13:24.297Z,21.30
2022-12-14T10:15:32.301Z,18.88
2022-12-14T10:17:46.338Z,20.80
2022-12-14T10:19:53.406Z,20.45
2022-12-14T10:22:00.017Z,19.63
2022-12-14T10:24:04.538Z,21.13
2022-12-14T10:26:11.355Z,20.23
2022-12-14T10:28:17.324Z,19.58
2022-12-14T10:30:20.187Z,21.02
2022-12-14T10:32:25.959Z,20.80
2022-12-14T10:34:30.509Z,22.27
2022-12-14T10:36:39.402Z,23.52
2022-12-14T10:38:49.315Z,20.25
2022-12-14T10:40:55.117Z,19.35
2022-12-14T10:43:11.423Z,21.02
2022-12-14T10:45:40.408Z,19.80
2022-12-14T10:47:47.426Z,19.20
2022-12-14T10:49:56.269Z,19.95
2022-12-14T10:52:03.894Z,20.05
2022-12-14T10:54:12.288Z,22.60
2022-12-14T10:56:18.747Z,25.85
2022-12-14T10:58:20.401Z,23.08
2022-12-14T11:00:23.822Z,21.63
2022-12-14T11:02:28.494Z,21.65
2022-12-14T11:04:35.158Z,24.98
2022-12-14T11:06:36.866Z,19.17
2022-12-14T11:08:43.574Z,19.20
2022-12-14T11:11:06.968Z,18.83
2022-12-14T11:13:18.938Z,19.58
2022-12-14T11:15:25.839Z,17.45
2022-12-14T11:17:36.740Z,20.70
2022-12-14T11:19:38.612Z,17.80
2022-12-14T11:21:40.714Z,20.00
2022-12-14T11:23:56.870Z,18.00
2022-12-14T11:26:03.818Z,22.83
2022-12-14T11:28:17.289Z,20.77
2022-12-14T11:30:19.509Z,19.33
2022-12-14T11:32:24.779Z,20.20
2022-12-14T11:34:33.152Z,21.52
2022-12-14T11:36:40.069Z,18.58
2022-12-14T11:38:41.663Z,18.73
2022-12-14T11:40:45.661Z,18.25
2022-12-14T11:42:49.270Z,16.58
2022-12-14T11:44:54.894Z,18.35
2022-12-14T11:47:05.590Z,16.52
2022-12-14T11:49:20.848Z,20.60
2022-12-14T11:51:22.551Z,19.60
2022-12-14T11:53:26.423Z,20.25
2022-12-14T11:55:29.188Z,16.13
2022-12-14T11:57:35.294Z,18.42
2022-12-14T11:59:39.522Z,18.33
2022-12-14T12:01:41.226Z,18.80
2022-12-14T12:03:46.873Z,19.08
2022-12-14T12:05:49.611Z,17.80
2022-12-14T12:07:54.185Z,17.70
2022-12-14T12:10:00.002Z,21.67
2022-12-14T12:12:01.879Z,18.33
2022-12-14T12:14:14.064Z,20.08
2022-12-14T12:16:18.042Z,19.48
2022-12-14T12:18:24.520Z,18.02
2022-12-14T12:20:30.688Z,19.60
2022-12-14T12:22:32.470Z,19.60
2022-12-14T12:24:55.138Z,18.75
2022-12-14T12:27:03.274Z,20.98
2022-12-14T12:29:14.149Z,18.40
2022-12-14T12:31:22.736Z,17.98
2022-12-14T12:33:32.029Z,21.98
2022-12-14T12:35:39.891Z,18.77
2022-12-14T12:37:45.816Z,17.77
2022-12-14T12:39:55.422Z,19.40
2022-12-14T12:42:09.258Z,17.20
2022-12-14T12:44:24.028Z,18.15
2022-12-14T12:46:29.891Z,17.02
2022-12-14T12:48:37.406Z,20.45
2022-12-14T12:50:44.781Z,17.70
2022-12-14T12:53:03.212Z,17.60
2022-12-14T12:55:13.743Z,16.88
2022-12-14T12:57:17.211Z,21.23
2022-12-14T12:59:23.079Z,19.25
2022-12-14T13:01:33.327Z,19.38
2022-12-14T13:03:39.287Z,16.50
2022-12-14T13:05:47.857Z,23.75
2022-12-14T13:07:53.331Z,16.98
2022-12-14T13:10:05.512Z,20.15
2022-12-14T13:12:17.743Z,18.48
2022-12-14T13:14:28.633Z,19.50
2022-12-14T13:16:33.435Z,16.55
2022-12-14T13:18:59.636Z,21.30
2022-12-14T13:21:16.910Z,19.63
2022-12-14T13:23:44.273Z,17.40
2022-12-14T13:25:49.889Z,19.95
2022-12-14T13:28:10.163Z,20.88
2022-12-14T13:30:45.602Z,18.92
2022-12-14T13:33:03.583Z,18.55
2022-12-14T13:35:23.072Z,17.55
2022-12-14T13:37:42.403Z,17.05
2022-12-14T13:40:07.487Z,19.95
2022-12-14T13:42:20.033Z,20.45
2022-12-14T13:44:53.947Z,18.60
2022-12-14T13:47:01.810Z,18.35
2022-12-14T13:49:07.024Z,19.10
2022-12-14T13:51:23.998Z,19.25
2022-12-14T13:53:28.711Z,18.95
2022-12-14T13:55:34.110Z,20.73
2022-12-14T13:57:35.817Z,20.20
2022-12-14T13:59:42.447Z,19.98
2022-12-14T14:01:56.386Z,21.42
2022-12-14T14:04:23.799Z,21.05
2022-12-14T14:06:38.383Z,23.83
2022-12-14T14:08:44.398Z,20.35
2022-12-14T14:10:47.582Z,19.35
2022-12-14T14:12:49.656Z,19.83
2022-12-14T14:14:58.389Z,21.92
2022-12-14T14:17:06.607Z,20.30
2022-12-14T14:19:19.805Z,16.27
2022-12-14T14:22:06.342Z,18.42
2022-12-14T14:24:21.797Z,16.85
2022-12-14T14:26:31.317Z,22.25
2022-12-14T14:28:33.927Z,20.90
2022-12-14T14:30:39.996Z,26.17
2022-12-14T14:32:42.601Z,17.80
2022-12-14T14:34:51.808Z,24.23
2022-12-14T14:36:54.869Z,19.17
2022-12-14T14:39:00.972Z,23.83
2022-12-14T14:41:19.216Z,17.73
2022-12-14T14:43:30.518Z,20.63
2022-12-14T14:45:41.577Z,18.85
2022-12-14T14:47:43.173Z,18.35
2022-12-14T14:49:50.360Z,19.73
2022-12-14T14:51:51.899Z,22.77
2022-12-14T14:55:06.602Z,22.67
2022-12-14T14:56:49.866Z,23.08
2022-12-14T14:59:12.258Z,24.20
2022-12-14T15:01:27.719Z,19.42
2022-12-14T15:03:43.124Z,21.70
2022-12-14T15:05:45.096Z,24.50
2022-12-14T15:09:55.065Z,20.80
2022-12-14T15:14:13.795Z,16.40
2022-12-14T15:16:29.943Z,23.52
2022-12-14T15:18:32.179Z,18.50
2022-12-14T15:20:35.217Z,24.08
2022-12-14T15:22:42.109Z,17.00
2022-12-14T15:24:45.128Z,22.33
2022-12-14T15:26:46.882Z,26.30
2022-12-14T15:28:54.586Z,23.33
2022-12-14T15:30:57.939Z,22.73
2022-12-14T15:33:03.783Z,23.80
2022-12-14T15:35:08.466Z,25.52
2022-12-14T15:37:25.353Z,22.02
2022-12-14T15:39:35.258Z,22.75
2022-12-14T15:41:36.885Z,27.75
2022-12-14T15:43:43.446Z,23.73
2022-12-14T15:45:50.373Z,22.65
2022-12-14T15:47:52.340Z,26.45
2022-12-14T15:50:00.505Z,29.13
2022-12-14T15:52:03.814Z,22.15
2022-12-14T15:54:07.235Z,24.40
2022-12-14T15:56:18.928Z,26.60
2022-12-14T15:58:30.163Z,29.30
2022-12-14T16:00:33.147Z,24.98
2022-12-14T16:02:36.438Z,27.10
2022-12-14T16:04:38.260Z,27.90
2022-12-14T16:06:44.162Z,25.75
2022-12-14T16:08:55.626Z,27.88
2022-12-14T16:11:00.086Z,26.02
2022-12-14T16:13:06.373Z,30.20
2022-12-14T16:15:17.672Z,24.73
2022-12-14T16:17:24.649Z,21.67
2022-12-14T16:19:45.053Z,27.25
2022-12-14T16:22:13.061Z,25.83
2022-12-14T16:24:22.439Z,23.40
2022-12-14T16:26:26.057Z,31.13
2022-12-14T16:28:30.407Z,32.42
2022-12-14T16:30:33.157Z,30.48
2022-12-14T16:32:34.863Z,25.75
2022-12-14T16:34:37.903Z,24.60
2022-12-14T16:36:39.709Z,25.60
2022-12-14T16:38:54.993Z,27.27
2022-12-14T16:40:58.974Z,24.95
2022-12-14T16:43:00.709Z,26.25
2022-12-14T16:45:02.415Z,25.38
2022-12-14T16:47:48.526Z,30.13
2022-12-14T16:49:57.552Z,31.58
2022-12-14T16:52:08.851Z,32.22
2022-12-14T16:54:23.563Z,27.02
2022-12-14T16:56:28.250Z,26.30
2022-12-14T16:58:30.193Z,31.70
2022-12-14T17:02:39.685Z,26.10
2022-12-14T17:04:42.637Z,32.47
2022-12-14T17:06:49.024Z,26.90
2022-12-14T17:08:50.675Z,30.48
2022-12-14T17:10:52.421Z,28.35
2022-12-14T17:12:56.562Z,35.40
2022-12-14T17:14:58.345Z,34.63
2022-12-14T17:17:01.750Z,31.70
2022-12-14T17:19:04.919Z,35.08
2022-12-14T17:21:08.631Z,32.45
2022-12-14T17:23:17.654Z,31.20
2022-12-14T17:25:20.542Z,33.10
2022-12-14T17:27:22.438Z,27.58
2022-12-14T17:31:27.886Z,32.08
2022-12-14T17:33:31.098Z,30.85
2022-12-14T17:35:32.997Z,31.35
2022-12-14T17:37:36.627Z,32.13
2022-12-14T17:39:39.835Z,31.15
2022-12-14T17:41:43.944Z,32.25
2022-12-14T17:43:50.989Z,32.17
2022-12-14T17:45:56.883Z,31.65
2022-12-14T17:47:58.588Z,31.15
2022-12-14T17:50:00.172Z,29.98
2022-12-14T17:52:03.328Z,28.30
2022-12-14T17:54:05.868Z,33.08
2022-12-14T17:56:08.792Z,27.98
2022-12-14T17:58:10.616Z,33.05
2022-12-14T18:00:16.214Z,30.70
2022-12-14T18:02:26.508Z,39.45
2022-12-14T18:04:28.258Z,34.05
2022-12-14T18:06:29.971Z,36.55
2022-12-14T18:08:31.822Z,32.03
2022-12-14T18:10:33.413Z,34.58
2022-12-14T18:12:36.479Z,40.85
2022-12-14T18:14:38.083Z,34.08
2022-12-14T18:16:39.663Z,32.05
2022-12-14T18:18:42.939Z,36.38
2022-12-14T18:20:51.666Z,38.30
2022-12-14T18:22:53.785Z,35.35
2022-12-14T18:24:55.665Z,38.28
2022-12-14T18:26:57.244Z,33.78
2022-12-14T18:29:00.140Z,41.58
2022-12-14T18:31:05.049Z,37.42
2022-12-14T18:33:06.964Z,37.95
2022-12-14T18:35:15.801Z,36.90
2022-12-14T18:37:22.859Z,34.53
2022-12-14T18:39:25.427Z,40.17
2022-12-14T18:41:27.223Z,37.35
2022-12-14T18:43:29.730Z,48.58
2022-12-14T18:45:34.586Z,45.05
2022-12-14T18:47:43.492Z,38.33
2022-12-14T18:49:45.087Z,43.38
2022-12-14T18:51:46.685Z,40.58
2022-12-14T18:53:49.542Z,40.53
2022-12-14T18:55:51.685Z,44.55
2022-12-14T18:57:55.740Z,42.45
2022-12-14T18:59:57.427Z,44.67
2022-12-14T19:02:00.563Z,90.72
2022-12-14T19:04:02.372Z,62.13
2022-12-14T19:06:34.946Z,41.80
2022-12-14T19:08:27.535Z,39.33
2022-12-14T19:10:31.721Z,40.63
2022-12-14T19:12:33.624Z,42.38
2022-12-14T19:16:36.945Z,37.00
2022-12-14T19:20:41.479Z,41.05
2022-12-14T19:22:43.754Z,43.05
2022-12-14T19:24:50.623Z,40.92
2022-12-14T19:26:53.893Z,47.88
2022-12-14T19:28:55.692Z,43.50
2022-12-14T19:30:58.405Z,48.13
2022-12-14T19:33:00.145Z,45.17
2022-12-14T19:35:03.546Z,42.38
2022-12-14T19:37:05.269Z,40.38
2022-12-14T19:39:07.015Z,38.85
2022-12-14T19:41:11.435Z,42.45
2022-12-14T19:43:13.548Z,40.92
2022-12-14T19:45:15.413Z,43.38
2022-12-14T19:49:18.679Z,36.92
2022-12-14T19:53:24.172Z,42.75
2022-12-14T19:55:25.867Z,44.28
2022-12-14T19:57:27.474Z,42.70
2022-12-14T19:59:29.192Z,41.17
2022-12-14T20:01:30.878Z,43.97
2022-12-14T20:03:33.280Z,43.90
2022-12-14T20:05:35.195Z,45.10
2022-12-14T20:07:43.753Z,45.63
2022-12-14T20:09:45.930Z,45.78
2022-12-14T20:11:47.545Z,47.53
2022-12-14T20:13:53.265Z,45.70
2022-12-14T20:15:58.977Z,47.40
2022-12-14T20:18:00.759Z,49.42
2022-12-14T20:20:04.728Z,44.15
2022-12-14T20:22:07.549Z,51.22
2022-12-14T20:24:11.783Z,45.30
2022-12-14T20:26:16.465Z,45.60
2022-12-14T20:28:20.997Z,49.72
2022-12-14T20:30:22.899Z,43.47
2022-12-14T20:34:27.991Z,41.70
2022-12-14T20:36:33.278Z,50.78
2022-12-14T20:38:35.683Z,46.30
2022-12-14T20:40:39.390Z,45.05
2022-12-14T20:42:41.359Z,49.83
2022-12-14T20:44:43.231Z,47.50
2022-12-14T20:46:51.188Z,50.78
2022-12-14T20:48:53.791Z,45.90
2022-12-14T20:50:59.374Z,48.03
2022-12-14T20:53:01.442Z,50.97
2022-12-14T20:55:03.402Z,48.03
2022-12-14T20:57:06.519Z,53.83
2022-12-14T20:59:08.708Z,51.70
2022-12-14T21:01:11.923Z,51.20
2022-12-14T21:03:14.075Z,47.70
2022-12-14T21:05:16.127Z,50.13
2022-12-14T21:07:21.410Z,50.05
2022-12-14T21:09:27.704Z,49.30
2022-12-14T21:11:30.014Z,51.95
2022-12-14T21:13:33.718Z,51.45
2022-12-14T21:15:35.827Z,51.28
2022-12-14T21:17:37.476Z,45.65
2022-12-14T21:19:40.298Z,44.88
2022-12-14T21:21:45.509Z,44.90
2022-12-14T21:23:49.904Z,52.58
2022-12-14T21:25:51.469Z,48.72
2022-12-14T21:27:53.285Z,50.63
2022-12-14T21:31:58.170Z,45.88
2022-12-14T21:33:59.910Z,42.72
2022-12-14T21:36:04.079Z,45.22
2022-12-14T21:38:05.896Z,49.85
2022-12-14T21:42:10.929Z,42.03
2022-12-14T21:44:12.665Z,44.72
2022-12-14T21:46:16.577Z,49.90
2022-12-14T21:48:18.452Z,51.30
2022-12-14T21:52:23.610Z,49.33
2022-12-14T21:54:26.067Z,44.05
2022-12-14T21:56:30.066Z,47.40
2022-12-14T21:58:31.676Z,52.83
2022-12-14T22:00:33.403Z,65.95
2022-12-14T22:02:36.640Z,57.28
2022-12-14T22:04:40.121Z,66.15
2022-12-14T22:06:41.974Z,52.38
2022-12-14T22:08:43.697Z,50.83
2022-12-14T22:10:45.318Z,74.72
2022-12-14T22:12:46.931Z,58.40
2022-12-14T22:14:48.858Z,64.20
2022-12-14T22:18:54.427Z,53.15
2022-12-14T22:21:02.757Z,61.72
2022-12-14T22:23:04.298Z,63.10
2022-12-14T22:25:06.918Z,53.45
2022-12-14T22:27:09.407Z,54.55
2022-12-14T22:29:12.196Z,61.80
2022-12-14T22:31:13.778Z,52.35
2022-12-14T22:33:15.372Z,53.28
2022-12-14T22:35:18.297Z,52.53
2022-12-14T22:37:19.930Z,52.88
2022-12-14T22:39:21.443Z,47.55
2022-12-14T22:41:24.056Z,54.90
2022-12-14T22:43:29.722Z,56.00
2022-12-14T22:45:34.705Z,49.35
2022-12-14T22:47:36.299Z,48.58
2022-12-14T22:49:37.849Z,52.95
2022-12-14T22:51:40.745Z,51.35
2022-12-14T22:53:42.778Z,51.40
2022-12-14T22:55:50.003Z,53.85
2022-12-14T22:57:52.736Z,55.10
2022-12-14T22:59:57.057Z,52.17
2022-12-14T23:01:59.446Z,54.45
2022-12-14T23:04:02.012Z,63.88
2022-12-14T23:06:04.401Z,51.50
2022-12-14T23:08:07.397Z,51.67
2022-12-14T23:10:09.424Z,48.33
2022-12-14T23:12:11.921Z,50.20
2022-12-14T23:14:14.549Z,54.35
2022-12-14T23:16:16.152Z,55.45
2022-12-14T23:18:17.790Z,47.85
2022-12-14T23:20:19.559Z,49.38
2022-12-14T23:22:21.471Z,52.83
2022-12-14T23:26:26.387Z,52.85
2022-12-14T23:28:31.645Z,45.85
2022-12-14T23:30:33.708Z,49.03
2022-12-14T23:32:35.493Z,42.53
2022-12-14T23:36:38.473Z,45.50
2022-12-14T23:38:40.095Z,47.38
2022-12-14T23:40:42.993Z,48.33
2022-12-14T23:42:44.624Z,49.22
2022-12-14T23:44:46.199Z,44.00
2022-12-14T23:46:47.740Z,49.22
2022-12-14T23:48:49.375Z,46.38
2022-12-14T23:50:50.949Z,56.47
2022-12-14T23:52:52.587Z,53.08
2022-12-14T23:54:54.091Z,52.15
2022-12-14T23:56:57.013Z,50.17
2022-12-14T23:58:58.522Z,48.72
